createdAt,value
2018-10-16T00:00:34.903Z,99.99
2018-10-16T00:01:34.965Z,99.99
2018-10-16T00:02:34.995Z,99.99
2018-10-16T00:03:35.052Z,99.99
2018-10-16T00:04:35.096Z,99.99
2018-10-16T00:05:35.111Z,99.99
2018-10-16T00:06:35.183Z,99.99
2018-10-16T00:07:35.258Z,99.99
2018-10-16T00:08:35.277Z,99.99
2018-10-16T00:09:35.316Z,99.99
2018-10-16T00:10:35.367Z,99.99
2018-10-16T00:11:35.388Z,99.99
2018-10-16T00:12:35.493Z,99.99
2018-10-16T00:13:35.499Z,99.99
2018-10-16T00:14:35.514Z,99.99
2018-10-16T00:15:35.579Z,99.99
2018-10-16T00:16:35.612Z,99.99
2018-10-16T00:17:35.700Z,99.99
2018-10-16T00:18:35.700Z,99.99
2018-10-16T00:19:35.730Z,99.99
2018-10-16T00:20:35.774Z,99.99
2018-10-16T00:21:35.851Z,99.99
2018-10-16T00:22:35.876Z,99.99
2018-10-16T00:23:35.933Z,99.99
2018-10-16T00:24:35.966Z,99.99
2018-10-16T00:25:36.033Z,99.99
2018-10-16T00:26:36.083Z,99.99
2018-10-16T00:27:36.104Z,99.99
2018-10-16T00:28:36.157Z,99.99
2018-10-16T00:29:36.248Z,99.99
2018-10-16T00:30:36.259Z,99.99
2018-10-16T00:31:36.297Z,99.99
2018-10-16T00:32:36.393Z,99.99
2018-10-16T00:33:36.393Z,99.99
2018-10-16T00:34:36.408Z,99.99
2018-10-16T00:35:36.472Z,99.99
2018-10-16T00:36:36.513Z,99.99
2018-10-16T00:37:36.577Z,99.99
2018-10-16T00:38:36.644Z,99.99
2018-10-16T00:39:36.642Z,99.99
2018-10-16T00:40:36.682Z,99.99
2018-10-16T00:41:36.715Z,99.99
2018-10-16T00:42:36.801Z,99.99
2018-10-16T00:43:36.814Z,99.99
2018-10-16T00:44:36.860Z,99.99
2018-10-16T00:45:36.928Z,99.99
2018-10-16T00:46:36.958Z,99.99
2018-10-16T00:47:37.004Z,99.99
2018-10-16T00:48:37.035Z,99.99
2018-10-16T00:49:37.069Z,99.99
2018-10-16T00:50:37.135Z,99.99
2018-10-16T00:51:37.174Z,99.99
2018-10-16T00:52:37.225Z,99.99
2018-10-16T00:53:37.273Z,99.99
2018-10-16T00:54:37.318Z,99.99
2018-10-16T00:55:37.392Z,99.99
2018-10-16T00:56:37.391Z,99.99
2018-10-16T00:57:37.443Z,99.99
2018-10-16T00:58:37.491Z,99.99
2018-10-16T00:59:37.541Z,99.99
2018-10-16T01:00:37.599Z,99.99
2018-10-16T01:01:37.627Z,99.99
2018-10-16T01:02:37.664Z,99.99
2018-10-16T01:03:37.714Z,99.99
2018-10-16T01:04:37.727Z,99.99
2018-10-16T01:05:37.813Z,99.99
2018-10-16T01:06:37.853Z,99.99
2018-10-16T01:07:37.917Z,99.99
2018-10-16T01:08:37.955Z,99.99
2018-10-16T01:09:38.000Z,99.99
2018-10-16T01:10:38.023Z,99.99
2018-10-16T01:11:38.041Z,99.99
2018-10-16T01:12:38.118Z,99.99
2018-10-16T01:13:38.194Z,99.99
2018-10-16T01:14:38.195Z,99.99
2018-10-16T01:15:38.234Z,99.99
2018-10-16T01:16:38.319Z,99.99
2018-10-16T01:17:38.326Z,99.99
2018-10-16T01:18:38.369Z,99.99
2018-10-16T01:19:38.399Z,99.99
2018-10-16T01:20:38.445Z,99.99
2018-10-16T01:21:38.496Z,99.99
2018-10-16T01:22:38.592Z,99.99
2018-10-16T01:23:38.604Z,99.99
2018-10-16T01:24:38.620Z,99.99
2018-10-16T01:25:38.671Z,99.99
2018-10-16T01:26:38.723Z,99.99
2018-10-16T01:27:38.774Z,99.99
2018-10-16T01:28:38.803Z,99.99
2018-10-16T01:29:38.848Z,99.99
2018-10-16T01:30:38.901Z,99.99
2018-10-16T01:31:38.941Z,99.99
2018-10-16T01:32:39.033Z,99.99
2018-10-16T01:33:39.023Z,99.99
2018-10-16T01:34:39.067Z,99.99
2018-10-16T01:35:39.107Z,99.99
2018-10-16T01:36:39.204Z,99.99
2018-10-16T01:37:39.229Z,99.99
2018-10-16T01:38:39.300Z,99.99
2018-10-16T01:39:39.276Z,99.99
2018-10-16T01:40:39.347Z,99.99
2018-10-16T01:41:39.401Z,99.99
2018-10-16T01:42:39.424Z,99.99
2018-10-16T01:43:39.478Z,99.99
2018-10-16T01:44:39.521Z,99.99
2018-10-16T01:45:39.587Z,99.99
2018-10-16T01:46:39.604Z,99.99
2018-10-16T01:47:39.666Z,99.99
2018-10-16T01:48:39.713Z,99.99
2018-10-16T01:49:39.754Z,99.99
2018-10-16T01:50:39.772Z,99.99
2018-10-16T01:51:39.833Z,99.99
2018-10-16T01:52:39.877Z,99.99
2018-10-16T01:53:39.931Z,99.99
2018-10-16T01:54:39.992Z,99.99
2018-10-16T01:55:40.016Z,99.99
2018-10-16T01:56:40.065Z,99.99
2018-10-16T01:57:40.092Z,99.99
2018-10-16T01:58:40.165Z,99.99
2018-10-16T01:59:40.181Z,99.99
2018-10-16T02:00:40.224Z,99.99
2018-10-16T02:01:40.347Z,99.99
2018-10-16T02:02:40.407Z,99.99
2018-10-16T02:03:40.408Z,99.99
2018-10-16T02:04:40.527Z,99.99
2018-10-16T02:05:40.492Z,99.99
2018-10-16T02:06:40.598Z,99.99
2018-10-16T02:07:40.598Z,99.99
2018-10-16T02:08:40.637Z,99.99
2018-10-16T02:09:40.689Z,99.99
2018-10-16T02:10:40.714Z,99.99
2018-10-16T02:11:40.756Z,99.99
2018-10-16T02:12:40.834Z,99.99
2018-10-16T02:13:40.902Z,99.99
2018-10-16T02:14:40.909Z,99.99
2018-10-16T02:15:40.960Z,99.99
2018-10-16T02:16:41.062Z,99.99
2018-10-16T02:17:41.035Z,99.99
2018-10-16T02:18:41.079Z,99.99
2018-10-16T02:19:41.130Z,99.99
2018-10-16T02:20:41.162Z,99.99
2018-10-16T02:21:41.222Z,99.99
2018-10-16T02:22:41.251Z,99.99
2018-10-16T02:23:41.324Z,99.99
2018-10-16T02:24:41.295Z,99.99
2018-10-16T02:25:41.352Z,99.99
2018-10-16T02:26:41.460Z,99.99
2018-10-16T02:27:41.456Z,99.99
2018-10-16T02:28:41.550Z,99.99
2018-10-16T02:29:41.594Z,99.99
2018-10-16T02:30:41.624Z,99.99
2018-10-16T02:31:41.689Z,99.99
2018-10-16T02:32:41.743Z,99.99
2018-10-16T02:33:41.760Z,99.99
2018-10-16T02:34:41.804Z,99.99
2018-10-16T02:35:41.871Z,99.99
2018-10-16T02:36:41.886Z,99.99
2018-10-16T02:37:41.945Z,99.99
2018-10-16T02:38:41.937Z,99.99
2018-10-16T02:39:41.966Z,99.99
2018-10-16T02:40:42.017Z,99.99
2018-10-16T02:41:42.062Z,99.99
2018-10-16T02:42:42.117Z,99.99
2018-10-16T02:43:42.169Z,99.99
2018-10-16T02:44:42.204Z,99.99
2018-10-16T02:45:42.248Z,99.99
2018-10-16T02:46:42.312Z,99.99
2018-10-16T02:47:42.336Z,99.99
2018-10-16T02:48:42.378Z,99.99
2018-10-16T02:49:42.421Z,99.99
2018-10-16T02:50:42.481Z,99.99
2018-10-16T02:51:42.537Z,99.99
2018-10-16T02:52:42.557Z,99.99
2018-10-16T02:53:42.628Z,99.99
2018-10-16T02:54:42.702Z,99.99
2018-10-16T02:55:42.706Z,99.99
2018-10-16T02:56:42.752Z,99.99
2018-10-16T02:57:42.818Z,99.99
2018-10-16T02:58:42.874Z,99.99
2018-10-16T02:59:42.883Z,99.99
2018-10-16T03:00:42.981Z,99.99
2018-10-16T03:01:42.993Z,99.99
2018-10-16T03:02:43.029Z,99.99
2018-10-16T03:03:43.038Z,99.99
2018-10-16T03:04:43.104Z,99.99
2018-10-16T03:05:43.139Z,99.99
2018-10-16T03:06:43.230Z,99.99
2018-10-16T03:07:43.250Z,99.99
2018-10-16T03:08:43.268Z,99.99
2018-10-16T03:09:43.341Z,99.99
2018-10-16T03:10:43.371Z,99.99
2018-10-16T03:11:43.412Z,99.99
2018-10-16T03:12:43.456Z,99.99
2018-10-16T03:13:43.519Z,99.99
2018-10-16T03:14:43.576Z,99.99
2018-10-16T03:15:43.585Z,99.99
2018-10-16T03:16:43.654Z,99.99
2018-10-16T03:17:43.687Z,99.99
2018-10-16T03:18:43.727Z,99.99
2018-10-16T03:19:43.780Z,99.99
2018-10-16T03:20:43.824Z,99.99
2018-10-16T03:21:43.885Z,99.99
2018-10-16T03:22:43.919Z,99.99
2018-10-16T03:23:43.958Z,99.99
2018-10-16T03:24:43.999Z,99.99
2018-10-16T03:25:44.061Z,99.99
2018-10-16T03:26:44.098Z,99.99
2018-10-16T03:27:44.149Z,99.99
2018-10-16T03:28:44.210Z,99.99
2018-10-16T03:29:44.232Z,99.99
2018-10-16T03:30:44.264Z,99.99
2018-10-16T03:31:44.348Z,99.99
2018-10-16T03:32:44.339Z,99.99
2018-10-16T03:33:44.388Z,99.99
2018-10-16T03:34:44.448Z,99.99
2018-10-16T03:35:44.480Z,99.99
2018-10-16T03:36:44.548Z,99.99
2018-10-16T03:37:44.572Z,99.99
2018-10-16T03:38:44.638Z,99.99
2018-10-16T03:39:44.649Z,99.99
2018-10-16T03:40:44.707Z,99.99
2018-10-16T03:41:44.754Z,99.99
2018-10-16T03:42:44.773Z,99.99
2018-10-16T03:43:44.842Z,99.99
2018-10-16T03:44:44.882Z,99.99
2018-10-16T03:45:44.971Z,99.99
2018-10-16T03:46:44.960Z,99.99
2018-10-16T03:47:45.076Z,99.99
2018-10-16T03:48:45.060Z,99.99
2018-10-16T03:49:45.105Z,99.99
2018-10-16T03:50:45.150Z,99.99
2018-10-16T03:51:45.191Z,99.99
2018-10-16T03:52:45.234Z,99.99
2018-10-16T03:53:45.283Z,99.99
2018-10-16T03:54:45.314Z,99.99
2018-10-16T03:55:45.385Z,99.99
2018-10-16T03:56:45.403Z,99.99
2018-10-16T03:57:45.467Z,99.99
2018-10-16T03:58:45.526Z,99.99
2018-10-16T03:59:45.551Z,99.99
2018-10-16T04:00:45.600Z,99.99
2018-10-16T04:01:45.635Z,99.99
2018-10-16T04:02:45.686Z,99.99
2018-10-16T04:03:45.702Z,99.99
2018-10-16T04:04:45.770Z,99.99
2018-10-16T04:05:45.813Z,99.99
2018-10-16T04:06:45.961Z,99.99
2018-10-16T04:07:45.881Z,99.99
2018-10-16T04:08:45.929Z,99.99
2018-10-16T04:09:45.986Z,99.63
2018-10-16T04:10:46.040Z,96.66
2018-10-16T04:11:46.050Z,93.97
2018-10-16T04:12:46.119Z,91.96
2018-10-16T04:13:46.174Z,89.94
2018-10-16T04:14:46.210Z,87.35
2018-10-16T04:15:46.254Z,85.42
2018-10-16T04:16:46.295Z,83.80
2018-10-16T04:17:46.339Z,82.93
2018-10-16T04:18:46.382Z,81.20
2018-10-16T04:19:46.425Z,78.99
2018-10-16T04:20:46.448Z,76.31
2018-10-16T04:21:46.510Z,74.96
2018-10-16T04:22:46.565Z,73.04
2018-10-16T04:23:46.597Z,71.70
2018-10-16T04:24:46.705Z,69.68
2018-10-16T04:25:46.670Z,67.57
2018-10-16T04:26:47.025Z,65.75
2018-10-16T04:27:46.754Z,64.28
2018-10-16T04:28:46.811Z,62.48
2018-10-16T04:29:46.824Z,61.24
2018-10-16T04:30:46.883Z,59.61
2018-10-16T04:31:46.946Z,58.45
2018-10-16T04:32:46.946Z,56.82
2018-10-16T04:33:47.016Z,55.67
2018-10-16T04:34:47.066Z,55.38
2018-10-16T04:35:47.089Z,53.94
2018-10-16T04:36:47.124Z,52.79
2018-10-16T04:37:47.185Z,52.12
2018-10-16T04:38:47.238Z,51.35
2018-10-16T04:39:47.272Z,50.49
2018-10-16T04:40:47.309Z,49.72
2018-10-16T04:41:47.473Z,49.43
2018-10-16T04:42:47.392Z,48.66
2018-10-16T04:43:47.488Z,48.18
2018-10-16T04:44:47.499Z,47.41
2018-10-16T04:45:47.540Z,47.61
2018-10-16T04:46:47.593Z,46.55
2018-10-16T04:47:47.616Z,46.26
2018-10-16T04:48:47.663Z,45.68
2018-10-16T04:49:47.694Z,45.59
2018-10-16T04:50:47.721Z,45.40
2018-10-16T04:51:47.778Z,44.92
2018-10-16T04:52:47.836Z,44.54
2018-10-16T04:53:47.876Z,44.06
2018-10-16T04:54:47.931Z,43.19
2018-10-16T04:55:47.963Z,43.10
2018-10-16T04:56:48.022Z,42.52
2018-10-16T04:57:48.040Z,42.13
2018-10-16T04:58:48.091Z,42.43
2018-10-16T04:59:48.132Z,42.13
2018-10-16T05:00:48.180Z,42.04
2018-10-16T05:01:48.219Z,41.83
2018-10-16T05:02:48.258Z,42.02
2018-10-16T05:03:48.326Z,41.06
2018-10-16T05:04:48.371Z,40.96
2018-10-16T05:05:48.395Z,40.67
2018-10-16T05:06:48.432Z,40.20
2018-10-16T05:07:48.495Z,40.48
2018-10-16T05:08:48.521Z,40.10
2018-10-16T05:09:48.576Z,39.45
2018-10-16T05:10:48.612Z,39.62
2018-10-16T05:11:48.661Z,38.85
2018-10-16T05:12:48.757Z,38.56
2018-10-16T05:13:48.774Z,38.09
2018-10-16T05:14:48.778Z,38.09
2018-10-16T05:15:48.816Z,37.89
2018-10-16T05:16:48.893Z,37.22
2018-10-16T05:17:48.938Z,36.84
2018-10-16T05:18:48.987Z,36.26
2018-10-16T05:19:49.005Z,36.26
2018-10-16T05:20:49.053Z,35.69
2018-10-16T05:21:49.093Z,35.78
2018-10-16T05:22:49.168Z,35.21
2018-10-16T05:23:49.182Z,35.02
2018-10-16T05:24:49.225Z,35.02
2018-10-16T05:25:49.280Z,35.11
2018-10-16T05:26:49.294Z,35.02
2018-10-16T05:27:49.360Z,35.11
2018-10-16T05:28:49.405Z,35.21
2018-10-16T05:29:49.441Z,35.21
2018-10-16T05:30:49.515Z,35.11
2018-10-16T05:31:49.537Z,35.02
2018-10-16T05:32:49.568Z,35.11
2018-10-16T05:33:49.623Z,35.02
2018-10-16T05:34:49.661Z,34.92
2018-10-16T05:35:49.675Z,35.21
2018-10-16T05:36:49.728Z,35.11
2018-10-16T05:37:49.834Z,34.63
2018-10-16T05:38:49.879Z,34.45
2018-10-16T05:39:49.887Z,34.25
2018-10-16T05:40:49.937Z,34.07
2018-10-16T05:41:50.280Z,33.88
2018-10-16T05:42:50.000Z,33.39
2018-10-16T05:43:50.060Z,33.77
2018-10-16T05:44:50.085Z,34.34
2018-10-16T05:45:50.134Z,34.34
2018-10-16T05:46:50.182Z,34.44
2018-10-16T05:47:50.211Z,34.53
2018-10-16T05:48:50.293Z,34.44
2018-10-16T05:49:50.355Z,34.53
2018-10-16T05:50:50.377Z,34.63
2018-10-16T05:51:50.422Z,34.53
2018-10-16T05:52:50.755Z,34.63
2018-10-16T05:53:50.506Z,34.44
2018-10-16T05:54:50.586Z,34.34
2018-10-16T05:55:50.588Z,34.34
2018-10-16T05:56:50.660Z,34.15
2018-10-16T05:57:50.667Z,34.34
2018-10-16T05:58:50.703Z,34.25
2018-10-16T05:59:50.763Z,34.06
2018-10-16T06:00:50.784Z,34.73
2018-10-16T06:01:50.839Z,34.92
2018-10-16T06:02:50.885Z,35.40
2018-10-16T06:03:50.945Z,35.49
2018-10-16T06:04:50.970Z,35.02
2018-10-16T06:05:51.028Z,34.92
2018-10-16T06:06:51.046Z,35.02
2018-10-16T06:07:51.099Z,35.02
2018-10-16T06:08:51.160Z,34.53
2018-10-16T06:09:51.215Z,34.07
2018-10-16T06:10:51.370Z,34.17
2018-10-16T06:11:51.269Z,33.69
2018-10-16T06:12:51.368Z,33.98
2018-10-16T06:13:51.402Z,33.88
2018-10-16T06:14:51.410Z,33.21
2018-10-16T06:15:51.536Z,33.59
2018-10-16T06:16:51.508Z,33.59
2018-10-16T06:17:51.562Z,33.69
2018-10-16T06:18:51.605Z,33.69
2018-10-16T06:19:51.640Z,33.50
2018-10-16T06:20:51.697Z,33.50
2018-10-16T06:21:51.731Z,33.59
2018-10-16T06:22:51.789Z,33.40
2018-10-16T06:23:51.824Z,32.82
2018-10-16T06:24:51.862Z,33.31
2018-10-16T06:25:51.920Z,33.31
2018-10-16T06:26:51.948Z,33.21
2018-10-16T06:27:52.072Z,32.82
2018-10-16T06:28:52.028Z,33.01
2018-10-16T06:29:52.067Z,33.01
2018-10-16T06:30:52.127Z,32.92
2018-10-16T06:31:52.143Z,32.34
2018-10-16T06:32:52.185Z,32.34
2018-10-16T06:33:52.269Z,32.44
2018-10-16T06:34:52.304Z,32.82
2018-10-16T06:35:52.355Z,32.82
2018-10-16T06:36:52.425Z,32.82
2018-10-16T06:37:52.424Z,32.73
2018-10-16T06:38:52.485Z,32.82
2018-10-16T06:39:52.524Z,32.92
2018-10-16T06:40:52.786Z,32.64
2018-10-16T06:41:52.660Z,32.54
2018-10-16T06:42:52.643Z,32.44
2018-10-16T06:43:52.728Z,32.25
2018-10-16T06:44:52.748Z,32.06
2018-10-16T06:45:52.779Z,32.25
2018-10-16T06:46:52.846Z,32.34
2018-10-16T06:47:52.898Z,32.25
2018-10-16T06:48:53.112Z,31.87
2018-10-16T06:49:52.958Z,31.67
2018-10-16T06:50:53.009Z,31.77
2018-10-16T06:51:53.292Z,31.58
2018-10-16T06:52:53.100Z,31.20
2018-10-16T06:53:53.141Z,31.29
2018-10-16T06:54:53.227Z,31.48
2018-10-16T06:55:53.221Z,31.38
2018-10-16T06:56:53.266Z,31.29
2018-10-16T06:57:53.323Z,31.20
2018-10-16T06:58:53.367Z,31.38
2018-10-16T06:59:53.417Z,31.29
2018-10-16T07:00:53.442Z,31.29
2018-10-16T07:01:53.500Z,31.20
2018-10-16T07:02:53.511Z,31.10
2018-10-16T07:03:53.629Z,30.81
2018-10-16T07:04:53.669Z,30.62
2018-10-16T07:05:53.707Z,30.71
2018-10-16T07:06:53.762Z,30.33
2018-10-16T07:07:53.760Z,30.14
2018-10-16T07:08:53.853Z,30.62
2018-10-16T07:09:53.845Z,30.23
2018-10-16T07:10:53.873Z,30.23
2018-10-16T07:11:53.969Z,30.14
2018-10-16T07:12:53.975Z,30.23
2018-10-16T07:13:54.035Z,29.85
2018-10-16T07:14:54.126Z,29.85
2018-10-16T07:15:54.112Z,29.47
2018-10-16T07:16:54.133Z,29.85
2018-10-16T07:17:54.456Z,29.75
2018-10-16T07:18:54.237Z,29.85
2018-10-16T07:19:54.273Z,29.66
2018-10-16T07:20:54.335Z,29.56
2018-10-16T07:21:54.347Z,29.37
2018-10-16T07:22:54.419Z,29.37
2018-10-16T07:23:54.502Z,29.85
2018-10-16T07:24:54.471Z,29.75
2018-10-16T07:25:54.541Z,29.75
2018-10-16T07:26:54.599Z,29.37
2018-10-16T07:27:54.624Z,29.75
2018-10-16T07:28:54.953Z,29.85
2018-10-16T07:29:54.738Z,30.43
2018-10-16T07:30:54.798Z,30.43
2018-10-16T07:31:54.793Z,30.52
2018-10-16T07:32:54.847Z,30.52
2018-10-16T07:33:54.933Z,30.43
2018-10-16T07:34:54.938Z,30.52
2018-10-16T07:35:54.974Z,30.14
2018-10-16T07:36:55.041Z,30.14
2018-10-16T07:37:55.191Z,30.23
2018-10-16T07:38:55.276Z,30.33
2018-10-16T07:39:55.209Z,30.33
2018-10-16T07:40:55.218Z,30.14
2018-10-16T07:41:55.241Z,30.43
2018-10-16T07:42:55.334Z,30.23
2018-10-16T07:43:55.369Z,30.52
2018-10-16T07:44:55.495Z,30.23
2018-10-16T07:45:55.419Z,30.14
2018-10-16T07:46:55.468Z,30.52
2018-10-16T07:47:55.522Z,30.71
2018-10-16T07:48:55.544Z,30.71
2018-10-16T07:49:55.605Z,30.62
2018-10-16T07:50:55.658Z,30.71
2018-10-16T07:51:55.722Z,30.52
2018-10-16T07:52:55.715Z,30.71
2018-10-16T07:53:55.815Z,30.62
2018-10-16T07:54:55.812Z,30.62
2018-10-16T07:55:56.145Z,30.62
2018-10-16T07:56:55.923Z,30.52
2018-10-16T07:57:55.923Z,30.43
2018-10-16T07:58:55.968Z,30.43
2018-10-16T07:59:56.079Z,30.23
2018-10-16T08:00:56.063Z,30.43
2018-10-16T08:01:56.120Z,30.43
2018-10-16T08:02:56.158Z,30.52
2018-10-16T08:03:56.224Z,30.33
2018-10-16T08:04:56.256Z,30.62
2018-10-16T08:05:56.269Z,30.52
2018-10-16T08:06:56.392Z,30.14
2018-10-16T08:07:56.378Z,30.14
2018-10-16T08:08:56.416Z,30.23
2018-10-16T08:09:56.480Z,30.23
2018-10-16T08:10:56.521Z,30.14
2018-10-16T08:11:56.550Z,29.75
2018-10-16T08:12:56.606Z,29.85
2018-10-16T08:13:56.650Z,29.75
2018-10-16T08:14:56.681Z,29.66
2018-10-16T08:15:56.752Z,29.85
2018-10-16T08:16:56.835Z,29.47
2018-10-16T08:17:56.833Z,29.47
2018-10-16T08:18:56.859Z,29.56
2018-10-16T08:19:56.893Z,29.56
2018-10-16T08:20:56.953Z,29.56
2018-10-16T08:21:56.981Z,29.47
2018-10-16T08:22:57.067Z,29.85
2018-10-16T08:23:57.074Z,29.47
2018-10-16T08:24:57.135Z,30.33
2018-10-16T08:25:57.187Z,30.90
2018-10-16T08:26:57.283Z,30.90
2018-10-16T08:27:57.261Z,30.71
2018-10-16T08:28:57.313Z,30.81
2018-10-16T08:29:57.366Z,30.90
2018-10-16T08:30:57.432Z,30.62
2018-10-16T08:31:57.417Z,30.52
2018-10-16T08:32:57.527Z,30.43
2018-10-16T08:33:57.537Z,30.43
2018-10-16T08:34:57.559Z,30.62
2018-10-16T08:35:57.617Z,30.71
2018-10-16T08:36:57.795Z,30.62
2018-10-16T08:37:57.699Z,30.52
2018-10-16T08:38:57.760Z,30.62
2018-10-16T08:39:57.802Z,30.43
2018-10-16T08:40:57.869Z,30.71
2018-10-16T08:41:57.966Z,30.43
2018-10-16T08:42:57.926Z,30.62
2018-10-16T08:43:57.963Z,30.23
2018-10-16T08:44:58.137Z,30.43
2018-10-16T08:45:58.050Z,30.43
2018-10-16T08:46:58.101Z,30.43
2018-10-16T08:47:58.147Z,30.33
2018-10-16T08:48:58.168Z,30.33
2018-10-16T08:49:58.240Z,30.04
2018-10-16T08:50:58.279Z,30.33
2018-10-16T08:51:58.364Z,29.94
2018-10-16T08:52:58.341Z,29.75
2018-10-16T08:53:58.674Z,29.47
2018-10-16T08:54:58.495Z,29.47
2018-10-16T08:55:58.511Z,29.47
2018-10-16T08:56:58.581Z,29.47
2018-10-16T08:57:58.617Z,29.85
2018-10-16T08:58:58.611Z,29.75
2018-10-16T08:59:58.680Z,30.23
2018-10-16T09:00:58.702Z,30.23
2018-10-16T09:01:58.792Z,30.23
2018-10-16T09:02:58.798Z,30.23
2018-10-16T09:03:58.883Z,30.43
2018-10-16T09:04:58.885Z,30.33
2018-10-16T09:05:58.921Z,30.23
2018-10-16T09:06:58.985Z,30.04
2018-10-16T09:07:59.029Z,29.94
2018-10-16T09:08:59.114Z,29.75
2018-10-16T09:09:59.123Z,29.37
2018-10-16T09:10:59.138Z,29.47
2018-10-16T09:11:59.210Z,29.37
2018-10-16T09:12:59.267Z,29.56
2018-10-16T09:13:59.309Z,29.85
2018-10-16T09:14:59.348Z,29.66
2018-10-16T09:15:59.381Z,29.56
2018-10-16T09:16:59.436Z,29.27
2018-10-16T09:17:59.474Z,29.58
2018-10-16T09:18:59.537Z,29.19
2018-10-16T09:19:59.555Z,29.28
2018-10-16T09:20:59.597Z,29.10
2018-10-16T09:21:59.649Z,28.81
2018-10-16T09:22:59.687Z,29.00
2018-10-16T09:23:59.744Z,29.00
2018-10-16T09:24:59.864Z,29.19
2018-10-16T09:26:00.064Z,29.08
2018-10-16T09:26:59.869Z,29.28
2018-10-16T09:27:59.909Z,28.81
2018-10-16T09:28:59.968Z,28.91
2018-10-16T09:30:00.019Z,29.58
2018-10-16T09:31:00.119Z,29.48
2018-10-16T09:32:00.122Z,29.86
2018-10-16T09:33:00.144Z,29.86
2018-10-16T09:34:00.191Z,29.48
2018-10-16T09:35:00.220Z,29.38
2018-10-16T09:36:00.266Z,29.67
2018-10-16T09:37:00.310Z,29.77
2018-10-16T09:38:00.379Z,29.38
2018-10-16T09:39:00.384Z,29.67
2018-10-16T09:40:00.438Z,30.35
2018-10-16T09:41:00.498Z,30.54
2018-10-16T09:42:00.534Z,30.54
2018-10-16T09:43:00.584Z,30.92
2018-10-16T09:44:00.681Z,31.69
2018-10-16T09:45:00.682Z,31.98
2018-10-16T09:46:00.706Z,32.17
2018-10-16T09:47:00.772Z,32.55
2018-10-16T09:48:00.804Z,32.93
2018-10-16T09:49:00.835Z,32.84
2018-10-16T09:50:00.903Z,32.93
2018-10-16T09:51:00.927Z,32.75
2018-10-16T09:52:00.997Z,32.93
2018-10-16T09:53:01.016Z,32.93
2018-10-16T09:54:01.114Z,32.07
2018-10-16T09:55:01.109Z,32.18
2018-10-16T09:56:01.172Z,32.57
2018-10-16T09:57:01.222Z,32.57
2018-10-16T09:58:01.237Z,32.57
2018-10-16T09:59:01.336Z,32.86
2018-10-16T10:00:01.341Z,32.47
2018-10-16T10:01:01.446Z,32.76
2018-10-16T10:02:01.431Z,32.76
2018-10-16T10:03:01.477Z,33.62
2018-10-16T10:04:01.530Z,34.20
2018-10-16T10:05:01.567Z,35.45
2018-10-16T10:06:01.653Z,35.26
2018-10-16T10:07:01.689Z,35.83
2018-10-16T10:08:01.718Z,35.74
2018-10-16T10:09:01.765Z,34.88
2018-10-16T10:10:01.785Z,35.45
2018-10-16T10:11:01.924Z,36.22
2018-10-16T10:12:01.898Z,36.41
2018-10-16T10:13:01.933Z,36.13
2018-10-16T10:14:01.984Z,36.22
2018-10-16T10:15:02.027Z,36.13
2018-10-16T10:16:02.065Z,36.51
2018-10-16T10:17:02.108Z,38.43
2018-10-16T10:18:02.151Z,39.58
2018-10-16T10:19:02.181Z,41.99
2018-10-16T10:20:02.265Z,44.87
2018-10-16T10:21:02.321Z,47.85
2018-10-16T10:22:02.335Z,49.10
2018-10-16T10:23:02.381Z,53.78
2018-10-16T10:24:02.437Z,53.78
2018-10-16T10:25:02.525Z,53.01
2018-10-16T10:26:02.534Z,51.40
2018-10-16T10:27:02.565Z,52.36
2018-10-16T10:28:02.657Z,52.75
2018-10-16T10:29:02.647Z,51.59
2018-10-16T10:30:02.713Z,51.02
2018-10-16T10:31:02.782Z,51.02
2018-10-16T10:32:02.790Z,51.11
2018-10-16T10:33:02.833Z,52.84
2018-10-16T10:34:02.886Z,53.23
2018-10-16T10:35:02.919Z,54.77
2018-10-16T10:36:02.985Z,61.30
2018-10-16T10:37:03.010Z,62.84
2018-10-16T10:38:03.099Z,62.45
2018-10-16T10:39:03.146Z,62.07
2018-10-16T10:40:03.143Z,60.63
2018-10-16T10:41:03.247Z,60.94
2018-10-16T10:42:03.292Z,61.78
2018-10-16T10:43:03.271Z,62.35
2018-10-16T10:44:03.333Z,62.96
2018-10-16T10:45:03.367Z,62.48
2018-10-16T10:46:03.418Z,62.68
2018-10-16T10:47:03.509Z,64.69
2018-10-16T10:48:03.515Z,64.22
2018-10-16T10:49:03.556Z,66.14
2018-10-16T10:50:03.849Z,73.15
2018-10-16T10:51:03.838Z,75.27
2018-10-16T10:52:03.681Z,73.92
2018-10-16T10:53:03.743Z,73.35
2018-10-16T10:54:03.794Z,73.77
2018-10-16T10:55:03.827Z,81.56
2018-10-16T10:56:03.874Z,83.83
2018-10-16T10:57:04.111Z,85.55
2018-10-16T10:58:03.956Z,91.42
2018-10-16T10:59:04.021Z,90.07
2018-10-16T11:00:04.030Z,87.76
2018-10-16T11:01:04.098Z,86.22
2018-10-16T11:02:04.138Z,85.75
2018-10-16T11:03:04.247Z,88.10
2018-10-16T11:04:04.230Z,86.85
2018-10-16T11:05:04.295Z,89.44
2018-10-16T11:06:04.347Z,90.02
2018-10-16T11:07:04.365Z,93.58
2018-10-16T11:08:04.429Z,95.12
2018-10-16T11:09:04.556Z,95.89
2018-10-16T11:10:04.530Z,94.88
2018-10-16T11:11:04.543Z,94.45
2018-10-16T11:12:04.596Z,95.45
2018-10-16T11:13:04.647Z,93.96
2018-10-16T11:14:04.714Z,92.81
2018-10-16T11:15:04.821Z,92.71
2018-10-16T11:16:04.807Z,91.85
2018-10-16T11:17:04.823Z,92.91
2018-10-16T11:18:04.895Z,93.38
2018-10-16T11:19:04.947Z,95.21
2018-10-16T11:20:04.979Z,94.54
2018-10-16T11:21:05.096Z,92.52
2018-10-16T11:22:05.079Z,95.70
2018-10-16T11:23:05.124Z,95.12
2018-10-16T11:24:05.146Z,95.79
2018-10-16T11:25:05.264Z,96.66
2018-10-16T11:26:05.283Z,99.99
2018-10-16T11:27:05.356Z,99.44
2018-10-16T11:28:05.349Z,98.00
2018-10-16T11:29:05.387Z,98.10
2018-10-16T11:30:05.465Z,98.19
2018-10-16T11:31:05.539Z,99.35
2018-10-16T11:32:05.539Z,98.00
2018-10-16T11:33:05.623Z,97.14
2018-10-16T11:34:05.638Z,96.61
2018-10-16T11:35:05.672Z,96.61
2018-10-16T11:36:05.712Z,96.12
2018-10-16T11:37:05.775Z,96.89
2018-10-16T11:38:05.827Z,97.67
2018-10-16T11:39:05.888Z,98.63
2018-10-16T11:40:05.913Z,99.11
2018-10-16T11:41:05.941Z,99.01
2018-10-16T11:42:05.999Z,99.21
2018-10-16T11:43:06.045Z,99.11
2018-10-16T11:44:06.090Z,99.99
2018-10-16T11:45:06.139Z,99.99
2018-10-16T11:46:06.192Z,99.99
2018-10-16T11:47:06.223Z,99.99
2018-10-16T11:48:06.302Z,99.99
2018-10-16T11:49:06.316Z,99.99
2018-10-16T11:50:06.427Z,99.99
2018-10-16T11:51:06.406Z,99.99
2018-10-16T11:52:06.503Z,99.99
2018-10-16T11:53:06.524Z,99.99
2018-10-16T11:54:06.547Z,99.99
2018-10-16T11:55:06.604Z,99.99
2018-10-16T11:56:06.661Z,99.99
2018-10-16T11:57:06.726Z,99.99
2018-10-16T11:58:06.744Z,99.99
2018-10-16T11:59:06.804Z,99.99
2018-10-16T12:00:06.880Z,99.99
2018-10-16T12:01:06.897Z,99.99
2018-10-16T12:02:06.941Z,99.99
2018-10-16T12:03:06.967Z,99.99
2018-10-16T12:04:07.067Z,99.99
2018-10-16T12:05:07.055Z,99.99
2018-10-16T12:06:07.251Z,99.99
2018-10-16T12:07:07.280Z,99.99
2018-10-16T12:08:07.268Z,99.99
2018-10-16T12:09:07.264Z,99.99
2018-10-16T12:10:07.320Z,99.99
2018-10-16T12:11:07.441Z,99.99
2018-10-16T12:12:07.424Z,99.99
2018-10-16T12:13:07.463Z,99.99
2018-10-16T12:14:07.556Z,99.99
2018-10-16T12:15:07.582Z,99.99
2018-10-16T12:16:07.569Z,99.99
2018-10-16T12:17:07.653Z,99.99
2018-10-16T12:18:07.692Z,99.99
2018-10-16T12:19:07.843Z,99.99
2018-10-16T12:20:07.926Z,99.99
2018-10-16T12:21:07.889Z,99.99
2018-10-16T12:22:07.865Z,99.99
2018-10-16T12:23:07.911Z,99.99
2018-10-16T12:24:07.967Z,99.99
2018-10-16T12:25:08.099Z,99.99
2018-10-16T12:26:08.044Z,99.99
2018-10-16T12:27:08.274Z,99.99
2018-10-16T12:28:08.144Z,99.99
2018-10-16T12:29:08.307Z,99.99
2018-10-16T12:30:08.285Z,99.99
2018-10-16T12:31:08.331Z,99.99
2018-10-16T12:32:08.399Z,99.99
2018-10-16T12:33:08.495Z,99.99
2018-10-16T12:34:08.420Z,99.99
2018-10-16T12:35:08.470Z,99.99
2018-10-16T12:36:08.518Z,99.99
2018-10-16T12:37:08.737Z,99.99
2018-10-16T12:38:08.638Z,99.99
2018-10-16T12:39:08.801Z,99.99
2018-10-16T12:40:08.811Z,99.99
2018-10-16T12:41:08.814Z,99.99
2018-10-16T12:42:08.882Z,99.99
2018-10-16T12:43:08.935Z,99.99
2018-10-16T12:44:08.887Z,99.99
2018-10-16T12:45:09.036Z,99.99
2018-10-16T12:46:09.075Z,99.99
2018-10-16T12:47:09.152Z,99.99
2018-10-16T12:48:09.113Z,99.99
2018-10-16T12:49:09.125Z,99.99
2018-10-16T12:50:09.194Z,99.99
2018-10-16T12:51:09.249Z,99.99
2018-10-16T12:52:09.276Z,99.99
2018-10-16T12:53:09.388Z,99.99